Time;durP1;ratioP1;P1;durP2;ratioP2;P2;SDS_P1;SDS_P2;PMS_P1;PMS_P2;Temp;Humidity;BMP_temperature;BMP_pressure;BME280_temperature;BME280_humidity;BME280_pressure;Samples;Min_cycle;Max_cycle;Signal;HPM_P1;HPM_P2
2021/06/12 00:01:17;;;;;;;18.65;13.75;;;;;;;22.75;55.83;100026.88;5035848;28;20053;-84
2021/06/12 00:03:44;;;;;;;17.90;12.82;;;;;;;22.76;55.74;100024.03;5035510;28;20088;-84
2021/06/12 00:06:11;;;;;;;20.05;13.00;;;;;;;22.77;55.64;100028.38;5035895;28;20075;-84
2021/06/12 00:08:37;;;;;;;17.30;11.77;;;;;;;22.77;55.66;100020.34;5036066;28;20063;-84
2021/06/12 00:11:04;;;;;;;18.05;13.10;;;;;;;22.77;55.40;100019.50;5035561;28;20055;-84
2021/06/12 00:13:35;;;;;;;18.48;12.45;;;;;;;22.74;56.27;100023.34;5035948;28;20409;-83
2021/06/12 00:16:05;;;;;;;17.60;12.32;;;;;;;22.72;55.86;100025.34;5035589;28;20497;-84
2021/06/12 00:18:31;;;;;;;18.13;11.57;;;;;;;22.70;55.62;100022.00;5035637;28;20050;-84
2021/06/12 00:21:02;;;;;;;20.23;12.55;;;;;;;22.68;56.06;100023.16;5035885;28;20049;-84
2021/06/12 00:23:29;;;;;;;16.50;11.43;;;;;;;22.65;55.48;100025.16;5035813;28;20053;-83
2021/06/12 00:25:56;;;;;;;19.70;12.30;;;;;;;22.64;55.69;100030.66;5035689;28;20389;-84
2021/06/12 00:28:23;;;;;;;15.63;11.93;;;;;;;22.61;55.85;100023.78;5035763;28;20497;-83
2021/06/12 00:30:49;;;;;;;17.92;11.50;;;;;;;22.58;55.77;100025.97;5035426;28;20068;-84
2021/06/12 00:33:16;;;;;;;15.98;11.63;;;;;;;22.57;55.90;100018.91;5035552;28;20063;-84
2021/06/12 00:35:44;;;;;;;18.73;12.30;;;;;;;22.55;55.98;100015.53;5035044;28;20076;-84
2021/06/12 00:38:11;;;;;;;14.77;10.60;;;;;;;22.51;55.92;100023.88;5035347;28;20049;-84
2021/06/12 00:40:38;;;;;;;16.20;11.13;;;;;;;22.49;56.13;100028.56;5035698;28;20056;-84
2021/06/12 00:43:05;;;;;;;17.35;10.93;;;;;;;22.47;55.91;100019.81;5035456;28;20063;-84
2021/06/12 00:45:32;;;;;;;20.50;11.27;;;;;;;22.45;55.91;100013.78;5035425;28;20049;-84
2021/06/12 00:48:01;;;;;;;16.50;11.13;;;;;;;22.40;56.14;100021.47;5035117;28;20048;-84
2021/06/12 00:50:32;;;;;;;15.90;11.82;;;;;;;22.37;56.28;100028.00;5035324;28;20528;-84
2021/06/12 00:53:00;;;;;;;17.58;11.70;;;;;;;22.34;56.32;100022.09;5035641;28;20048;-84
2021/06/12 00:55:30;;;;;;;17.95;12.13;;;;;;;22.29;56.42;100019.03;5035290;28;20071;-84
2021/06/12 00:57:57;;;;;;;17.38;11.30;;;;;;;22.27;56.19;100019.19;5035777;28;20049;-84
2021/06/12 01:00:26;;;;;;;16.90;11.23;;;;;;;22.21;56.13;100012.63;5039278;28;20053;-84
2021/06/12 01:02:53;;;;;;;15.18;11.20;;;;;;;22.17;55.97;100005.06;5039225;28;20144;-84
2021/06/12 01:05:21;;;;;;;13.63;10.52;;;;;;;22.11;56.12;100009.22;5038640;28;20057;-84
2021/06/12 01:07:54;;;;;;;15.30;10.43;;;;;;;22.04;56.68;100005.47;5038929;28;20404;-84
2021/06/12 01:10:21;;;;;;;16.95;11.18;;;;;;;22.02;56.29;100000.28;5056336;28;20053;-84
2021/06/12 01:13:05;;;;;;;16.02;10.40;;;;;;;21.98;56.19;99997.06;5038886;28;20405;-84
2021/06/12 01:16:12;;;;;;;15.70;11.80;;;;;;;21.88;57.01;99985.59;5038619;28;20057;-84
2021/06/12 01:18:43;;;;;;;19.98;12.40;;;;;;;21.87;56.66;99984.75;5028736;28;20080;-84
2021/06/12 01:21:38;;;;;;;14.82;11.13;;;;;;;21.78;56.87;99984.84;5038920;28;20049;-84
2021/06/12 01:24:24;;;;;;;23.35;13.35;;;;;;;21.77;56.60;99981.34;5037743;28;20140;-84
2021/06/12 01:27:12;;;;;;;20.90;13.93;;;;;;;21.69;57.62;99984.78;5038774;28;20383;-84
2021/06/12 01:29:58;;;;;;;20.33;12.95;;;;;;;21.67;56.93;99988.56;5056364;28;20438;-84
2021/06/12 01:32:26;;;;;;;22.58;12.90;;;;;;;21.61;57.17;99973.97;5038508;28;20055;-84
2021/06/12 01:34:57;;;;;;;21.42;14.90;;;;;;;21.57;57.75;99980.66;5038349;28;20144;-84
2021/06/12 01:37:25;;;;;;;22.13;14.82;;;;;;;21.54;57.60;99963.03;5038330;28;20175;-84
2021/06/12 01:39:53;;;;;;;20.67;14.43;;;;;;;21.52;57.71;99966.88;5038166;28;20493;-84
2021/06/12 01:42:27;;;;;;;21.77;14.35;;;;;;;21.46;58.63;99958.44;5038206;28;20049;-84
2021/06/12 01:44:55;;;;;;;21.15;14.60;;;;;;;21.46;57.86;99957.63;5038111;28;20102;-84
2021/06/12 01:47:22;;;;;;;21.13;14.38;;;;;;;21.45;58.02;99963.94;5038331;28;20049;-84
2021/06/12 01:49:53;;;;;;;22.58;14.57;;;;;;;21.42;58.77;99961.59;5038128;28;20053;-84
2021/06/12 01:52:21;;;;;;;23.02;14.85;;;;;;;21.43;58.46;99966.81;5037724;28;20049;-84
2021/06/12 01:54:50;;;;;;;21.20;14.77;;;;;;;21.41;58.65;99966.09;5037829;28;20049;-84
2021/06/12 01:57:24;;;;;;;24.92;16.48;;;;;;;21.40;59.36;99964.41;5037980;28;20139;-84
2021/06/12 01:59:52;;;;;;;23.38;16.25;;;;;;;21.43;58.77;99966.81;5038192;28;20147;-84
2021/06/12 02:02:20;;;;;;;22.45;15.35;;;;;;;21.44;58.99;99964.94;5038086;28;20397;-84
2021/06/12 02:04:51;;;;;;;23.98;15.75;;;;;;;21.43;59.52;99960.59;5037979;28;20056;-84
2021/06/12 02:07:19;;;;;;;33.55;16.10;;;;;;;21.45;59.15;99969.31;5037582;28;20049;-83
2021/06/12 02:09:48;;;;;;;20.80;14.82;;;;;;;21.47;59.10;99967.31;5036431;28;20420;-84
2021/06/12 02:12:15;;;;;;;21.42;15.45;;;;;;;21.49;59.00;99976.03;5037916;28;20507;-84
2021/06/12 02:14:42;;;;;;;27.38;16.83;;;;;;;21.47;59.08;99962.81;5037616;28;20051;-83
2021/06/12 02:17:11;;;;;;;21.27;15.00;;;;;;;21.46;59.11;99963.78;5037441;28;20515;-83
2021/06/12 02:19:41;;;;;;;22.02;15.45;;;;;;;21.42;59.25;99959.75;5037610;28;20053;-84
2021/06/12 02:22:08;;;;;;;19.88;14.88;;;;;;;21.41;58.82;99976.00;5021317;28;20873;-84
2021/06/12 02:24:36;;;;;;;18.98;14.73;;;;;;;21.37;59.04;99975.44;5037540;28;20045;-83
2021/06/12 02:27:05;;;;;;;22.65;15.73;;;;;;;21.33;59.34;99974.06;5037657;28;20409;-84
2021/06/12 02:29:33;;;;;;;22.45;14.57;;;;;;;21.29;59.20;99980.69;5037268;28;20049;-84
2021/06/12 02:32:04;;;;;;;21.38;15.30;;;;;;;21.25;59.53;99982.84;5037467;28;20481;-84
2021/06/12 02:34:32;;;;;;;18.75;13.95;;;;;;;21.22;59.26;99973.28;5037260;28;20056;-84
2021/06/12 02:36:59;;;;;;;24.77;14.52;;;;;;;21.20;59.28;99955.69;5036952;28;20063;-84
2021/06/12 02:39:26;;;;;;;23.50;14.38;;;;;;;21.18;59.45;99952.31;5036503;28;20074;-84
2021/06/12 02:41:53;;;;;;;21.98;15.48;;;;;;;21.16;59.36;99949.78;5037268;28;20437;-83
2021/06/12 02:44:23;;;;;;;18.83;14.38;;;;;;;21.13;60.03;99955.47;5037285;28;20053;-84
2021/06/12 02:46:50;;;;;;;21.17;13.70;;;;;;;21.13;59.49;99966.19;5036908;28;20128;-84
2021/06/12 02:49:37;;;;;;;24.60;14.98;;;;;;;21.06;59.93;99965.94;5036132;28;20053;-84
2021/06/12 02:54:48;;;;;;;21.20;14.50;;;;;;;21.05;59.35;99958.88;5053891;28;20400;-84
2021/06/12 02:57:20;;;;;;;21.83;14.45;;;;;;;21.03;59.87;99965.38;5037111;28;20515;-84
2021/06/12 02:59:47;;;;;;;21.33;14.82;;;;;;;21.03;59.74;99965.38;5036941;28;20107;-84
2021/06/12 03:02:14;;;;;;;20.20;14.60;;;;;;;21.00;59.56;99966.53;5037116;28;20063;-84
2021/06/12 03:04:45;;;;;;;21.35;14.40;;;;;;;20.98;60.24;99959.66;5036775;28;20053;-84
2021/06/12 03:07:13;;;;;;;17.55;13.65;;;;;;;20.95;59.48;99953.63;5054288;28;20057;-84
2021/06/12 03:09:44;;;;;;;16.75;12.20;;;;;;;20.92;59.97;99959.25;5036323;28;20059;-84
2021/06/12 03:12:12;;;;;;;22.67;14.93;;;;;;;20.93;59.82;99954.75;5036858;28;20044;-84
2021/06/12 03:14:40;;;;;;;18.80;13.50;;;;;;;20.91;59.80;99949.56;5036292;28;20135;-83
2021/06/12 03:17:08;;;;;;;17.25;13.20;;;;;;;20.91;59.79;99946.88;5036469;28;20497;-83
2021/06/12 03:19:41;;;;;;;18.95;14.55;;;;;;;20.88;60.44;99946.31;5036661;28;20512;-82
2021/06/12 03:22:10;;;;;;;21.25;14.73;;;;;;;20.90;60.01;99950.53;5036382;28;20052;-88
2021/06/12 03:24:38;;;;;;;22.30;15.35;;;;;;;20.89;59.75;99942.69;5035986;28;20040;-83
2021/06/12 03:27:06;;;;;;;19.73;15.00;;;;;;;20.88;60.05;99947.19;5036489;28;20408;-84
2021/06/12 03:29:34;;;;;;;23.63;15.35;;;;;;;20.86;60.16;99938.41;5054175;28;20131;-84
2021/06/12 03:32:04;;;;;;;18.70;14.30;;;;;;;20.85;60.58;99946.63;5036398;28;20059;-84
2021/06/12 03:34:31;;;;;;;20.92;15.05;;;;;;;20.85;60.11;99950.09;5036120;28;20114;-84
2021/06/12 03:36:59;;;;;;;19.90;14.43;;;;;;;20.85;60.25;99946.63;5035980;28;20049;-84
2021/06/12 03:39:26;;;;;;;24.98;14.68;;;;;;;20.85;60.23;99936.72;5036319;28;20412;-84
2021/06/12 03:41:54;;;;;;;20.75;14.15;;;;;;;20.86;60.35;99941.09;5036000;28;20082;-84
2021/06/12 03:44:22;;;;;;;22.33;14.73;;;;;;;20.87;60.31;99956.19;5036085;28;20087;-84
2021/06/12 03:47:00;;;;;;;19.05;13.85;;;;;;;20.84;61.22;99953.78;5053893;28;20052;-84
2021/06/12 03:49:27;;;;;;;20.00;14.95;;;;;;;20.88;60.56;99957.03;5036027;28;20059;-84
2021/06/12 03:51:54;;;;;;;19.17;14.07;;;;;;;20.87;60.46;99958.88;5053382;28;20049;-84
2021/06/12 03:54:22;;;;;;;20.80;14.88;;;;;;;20.87;60.63;99960.66;5035743;28;20052;-84
2021/06/12 03:56:50;;;;;;;20.02;14.38;;;;;;;20.87;60.54;99950.84;5035861;28;20044;-84
2021/06/12 03:59:17;;;;;;;17.65;14.13;;;;;;;20.88;60.67;99954.34;5035872;28;20063;-84
2021/06/12 04:01:47;;;;;;;20.17;14.50;;;;;;;20.87;61.14;99956.19;5036026;28;20049;-84
2021/06/12 04:04:14;;;;;;;19.45;14.10;;;;;;;20.89;60.56;99954.19;5035499;28;20059;-83
2021/06/12 04:06:41;;;;;;;18.38;14.52;;;;;;;20.90;60.69;99955.88;5035634;28;20049;-83
2021/06/12 04:09:08;;;;;;;21.27;14.40;;;;;;;20.91;60.63;99972.78;5035988;28;20059;-84
2021/06/12 04:11:34;;;;;;;17.92;13.80;;;;;;;20.91;60.68;99962.09;5035535;28;20060;-84
2021/06/12 04:14:03;;;;;;;19.83;14.55;;;;;;;20.92;60.95;99956.59;5034951;28;20059;-84
2021/06/12 04:16:33;;;;;;;17.52;13.93;;;;;;;20.91;61.11;99954.06;5035309;28;20057;-84
2021/06/12 04:19:03;;;;;;;18.95;13.90;;;;;;;20.92;61.19;99961.09;5035558;28;20056;-84
2021/06/12 04:21:30;;;;;;;18.95;13.20;;;;;;;20.94;61.06;99956.44;5035815;28;20049;-84
2021/06/12 04:24:02;;;;;;;20.95;13.95;;;;;;;20.92;61.46;99959.25;5035661;28;20607;-84
2021/06/12 04:26:28;;;;;;;17.73;13.57;;;;;;;20.96;61.02;99960.66;5053164;28;20143;-84
2021/06/12 04:28:55;;;;;;;20.38;14.63;;;;;;;20.97;60.87;99950.75;5035476;28;20075;-84
2021/06/12 04:31:22;;;;;;;19.95;15.02;;;;;;;20.99;61.17;99961.31;5035835;28;20053;-84
2021/06/12 04:33:49;;;;;;;22.73;14.63;;;;;;;20.99;61.11;99955.97;5055336;28;20049;-84
2021/06/12 04:36:28;;;;;;;18.42;14.10;;;;;;;20.95;61.95;99958.97;5057343;28;20398;-84
2021/06/12 04:38:55;;;;;;;20.40;15.10;;;;;;;21.01;61.02;99956.69;5039223;28;20045;-84
2021/06/12 04:41:22;;;;;;;20.52;14.52;;;;;;;21.01;61.19;99952.16;5039401;28;20052;-84
2021/06/12 04:43:50;;;;;;;17.25;13.40;;;;;;;21.01;61.14;99941.44;5039269;28;20071;-84
2021/06/12 04:46:16;;;;;;;21.17;14.88;;;;;;;21.03;61.27;99943.97;5039287;28;20146;-84
2021/06/12 04:48:43;;;;;;;17.70;13.73;;;;;;;21.05;61.23;99953.53;5039267;28;20048;-84
2021/06/12 04:51:11;;;;;;;21.45;14.75;;;;;;;21.06;61.26;99960.59;5039195;28;20055;-84
2021/06/12 04:53:38;;;;;;;16.92;13.32;;;;;;;21.09;61.13;99954.91;5039136;28;20041;-84
2021/06/12 04:56:04;;;;;;;20.08;13.60;;;;;;;21.12;61.24;99952.94;5038933;28;20055;-84
2021/06/12 04:58:34;;;;;;;17.55;13.02;;;;;;;21.12;61.57;99953.75;5039052;28;20056;-84
2021/06/12 05:01:01;;;;;;;19.00;13.55;;;;;;;21.17;61.32;99959.53;5056673;28;20063;-84
2021/06/12 05:03:28;;;;;;;20.63;14.43;;;;;;;21.19;61.14;99949.50;5038959;28;20049;-84
2021/06/12 05:05:57;;;;;;;19.25;14.48;;;;;;;21.22;61.20;99962.59;5038622;28;20059;-84
2021/06/12 05:08:24;;;;;;;18.23;14.25;;;;;;;21.24;61.21;99957.09;5039075;28;20048;-84
2021/06/12 05:10:51;;;;;;;17.63;13.80;;;;;;;21.25;61.00;99963.25;5056317;28;20111;-84
2021/06/12 05:13:23;;;;;;;17.02;13.13;;;;;;;21.24;61.45;99966.94;5038829;28;20090;-85
2021/06/12 05:15:54;;;;;;;19.75;13.93;;;;;;;21.24;61.24;99970.47;5038424;28;20437;-84
2021/06/12 05:18:28;;;;;;;21.05;13.75;;;;;;;21.27;60.93;99977.34;5038963;28;20052;-84
2021/06/12 05:20:55;;;;;;;18.85;13.32;;;;;;;21.28;61.05;99981.69;4959907;28;20062;-84
2021/06/12 05:23:22;;;;;;;17.83;13.40;;;;;;;21.28;61.23;99968.31;4975489;28;20051;-84
2021/06/12 05:25:48;;;;;;;19.35;14.07;;;;;;;21.29;61.20;99978.03;4955855;28;20055;-84
2021/06/12 05:28:22;;;;;;;17.00;13.00;;;;;;;21.27;61.56;99967.47;4956114;29;20067;-84
2021/06/12 05:30:49;;;;;;;16.23;12.10;;;;;;;21.31;61.01;99976.06;4956029;29;20058;-84
2021/06/12 05:33:16;;;;;;;18.52;14.32;;;;;;;21.31;61.05;99976.88;4955996;29;20412;-85
2021/06/12 05:35:45;;;;;;;19.00;14.27;;;;;;;21.31;61.43;99970.69;4955793;29;20051;-85
2021/06/12 05:38:11;;;;;;;17.13;13.90;;;;;;;21.30;61.16;99972.53;4967380;28;20057;-84
2021/06/12 05:40:45;;;;;;;18.98;13.90;;;;;;;21.30;61.63;99969.84;5020376;28;20421;-84
2021/06/12 05:43:12;;;;;;;16.38;12.13;;;;;;;21.32;61.21;99969.69;5035191;28;20049;-84
2021/06/12 05:45:44;;;;;;;20.10;14.82;;;;;;;21.30;61.63;99979.72;5017474;28;20049;-84
2021/06/12 05:48:11;;;;;;;16.13;13.35;;;;;;;21.33;61.59;99982.09;5034702;28;20049;-84
2021/06/12 05:50:42;;;;;;;19.08;13.30;;;;;;;21.32;61.67;99978.59;5034532;28;20051;-84
2021/06/12 05:53:09;;;;;;;19.88;13.90;;;;;;;21.35;61.40;99972.06;5018512;28;20049;-84
2021/06/12 05:55:35;;;;;;;20.88;13.68;;;;;;;21.35;61.63;99969.41;5034273;28;20151;-84
2021/06/12 05:58:20;;;;;;;19.27;14.63;;;;;;;21.33;62.02;99963.34;5018120;28;20136;-84
2021/06/12 06:00:47;;;;;;;18.38;13.13;;;;;;;21.40;61.92;99963.56;5054161;28;20148;-84
2021/06/12 06:03:13;;;;;;;18.40;15.20;;;;;;;21.40;61.78;99967.09;5037849;28;20460;-84
2021/06/12 06:05:41;;;;;;;18.27;13.75;;;;;;;21.44;62.21;99968.47;5017357;28;20050;-84
2021/06/12 06:08:08;;;;;;;20.08;14.85;;;;;;;21.45;61.93;99970.16;5017992;28;20053;-84
2021/06/12 06:10:35;;;;;;;17.63;14.80;;;;;;;21.48;61.63;99975.22;5035188;28;20057;-84
2021/06/12 06:13:02;;;;;;;18.30;14.43;;;;;;;21.50;61.53;99977.75;5017562;28;20049;-84
2021/06/12 06:15:30;;;;;;;17.35;14.27;;;;;;;21.50;61.55;99975.06;5023928;28;20045;-84
2021/06/12 06:17:57;;;;;;;17.45;14.25;;;;;;;21.51;61.42;99974.06;5037552;28;20057;-84
2021/06/12 06:20:24;;;;;;;16.58;14.10;;;;;;;21.52;61.51;99985.63;5037572;28;20059;-84
2021/06/12 06:22:51;;;;;;;17.45;14.43;;;;;;;21.52;61.49;99970.38;5037743;28;20425;-84
2021/06/12 06:25:18;;;;;;;18.05;15.15;;;;;;;21.53;61.52;99972.06;5037331;28;20063;-84
2021/06/12 06:27:46;;;;;;;20.90;15.38;;;;;;;21.54;61.77;99967.56;5037595;28;20501;-84
2021/06/12 06:30:14;;;;;;;18.90;15.23;;;;;;;21.57;61.74;99972.59;5054905;28;20048;-84
2021/06/12 06:32:41;;;;;;;20.35;15.32;;;;;;;21.62;61.79;99962.25;5036728;28;20055;-84
2021/06/12 06:35:08;;;;;;;19.25;15.27;;;;;;;21.66;61.61;99971.69;5037100;28;20075;-84
2021/06/12 06:37:35;;;;;;;18.65;14.80;;;;;;;21.73;61.66;99969.25;5037302;28;20063;-85
2021/06/12 06:40:02;;;;;;;19.08;14.40;;;;;;;21.78;61.50;99964.25;5037022;28;20059;-84
2021/06/12 06:42:29;;;;;;;17.15;14.13;;;;;;;21.83;61.58;99964.63;5037355;28;20405;-84
2021/06/12 06:45:00;;;;;;;18.30;14.57;;;;;;;21.87;61.57;99978.56;5036124;28;20416;-84
2021/06/12 06:47:27;;;;;;;17.55;14.00;;;;;;;21.93;61.40;99969.88;5036895;28;20059;-84
2021/06/12 06:49:54;;;;;;;19.88;14.02;;;;;;;21.97;61.09;99967.72;5036291;28;20128;-84
2021/06/12 06:52:20;;;;;;;18.27;14.15;;;;;;;21.98;61.06;99975.63;5036548;28;20045;-84
2021/06/12 06:54:47;;;;;;;18.52;14.48;;;;;;;22.00;61.16;99976.31;5035847;28;20756;-84
2021/06/12 06:57:14;;;;;;;16.42;13.65;;;;;;;22.02;60.97;99978.84;5036324;28;20411;-84
2021/06/12 06:59:41;;;;;;;18.05;13.73;;;;;;;22.03;60.96;99977.00;5036619;28;20048;-84
2021/06/12 07:02:08;;;;;;;15.02;12.73;;;;;;;22.04;60.62;99978.66;5036620;28;20053;-84
2021/06/12 07:04:37;;;;;;;15.25;13.68;;;;;;;22.02;60.56;99984.22;5036137;28;20045;-84
2021/06/12 07:07:08;;;;;;;16.95;13.93;;;;;;;21.99;60.84;99981.84;5036674;28;20056;-84
2021/06/12 07:09:35;;;;;;;16.52;12.95;;;;;;;21.98;60.55;99980.97;5021655;28;20053;-84
2021/06/12 07:12:03;;;;;;;18.30;14.05;;;;;;;21.96;60.75;99983.00;5034166;28;20059;-84
2021/06/12 07:14:31;;;;;;;17.90;14.27;;;;;;;21.96;60.83;99977.63;5016568;28;20118;-84
2021/06/12 07:16:57;;;;;;;17.00;13.40;;;;;;;21.96;60.83;99979.44;5016402;28;20176;-84
2021/06/12 07:19:27;;;;;;;15.18;13.57;;;;;;;21.95;61.04;99981.31;5016579;28;20053;-84
2021/06/12 07:21:54;;;;;;;16.60;13.82;;;;;;;21.98;61.07;99990.88;5016344;28;20406;-84
2021/06/12 07:24:22;;;;;;;17.52;13.70;;;;;;;22.00;60.61;99988.88;5017279;28;20060;-84
2021/06/12 07:26:49;;;;;;;15.63;13.25;;;;;;;22.03;61.10;99996.59;5034231;28;20501;-84
2021/06/12 07:29:15;;;;;;;18.02;13.77;;;;;;;22.07;61.42;99995.28;5034169;28;20049;-85
2021/06/12 07:35:06;;;;;;;16.42;13.48;;;;;;;22.20;60.91;99994.84;5033672;28;20059;-84
2021/06/12 07:41:14;;;;;;;16.20;13.52;;;;;;;22.32;60.62;99979.34;5034989;28;20107;-83
2021/06/12 07:43:41;;;;;;;15.80;12.95;;;;;;;22.35;60.65;99983.56;5048947;28;20791;-84
2021/06/12 07:46:07;;;;;;;16.30;13.20;;;;;;;22.37;60.85;99993.13;5035959;28;20053;-84
2021/06/12 07:48:40;;;;;;;13.55;11.38;;;;;;;22.39;60.43;99982.25;5035905;28;20057;-84
2021/06/12 07:51:07;;;;;;;16.33;11.88;;;;;;;22.47;60.43;99992.16;5036246;28;20085;-84
2021/06/12 07:53:34;;;;;;;15.90;12.02;;;;;;;22.52;60.10;99992.53;5035657;28;20055;-84
2021/06/12 07:56:05;;;;;;;13.60;12.13;;;;;;;22.55;59.60;99997.63;5035571;28;20060;-84
2021/06/12 07:58:32;;;;;;;15.23;12.45;;;;;;;22.63;59.39;99994.13;5034142;28;20140;-84
2021/06/12 08:01:36;;;;;;;16.65;11.57;;;;;;;22.64;59.61;100010.06;5035954;28;20049;-84
2021/06/12 08:04:04;;;;;;;12.25;10.68;;;;;;;22.75;58.90;100011.63;5035147;28;20212;-84
2021/06/12 08:06:30;;;;;;;12.90;10.23;;;;;;;22.81;58.71;99995.88;5036008;28;20409;-84
2021/06/12 08:09:23;;;;;;;12.27;9.88;;;;;;;22.81;58.52;99993.19;5035507;28;20049;-84
2021/06/12 08:11:51;;;;;;;12.38;9.23;;;;;;;22.90;58.65;99998.41;5035727;28;20053;-85
2021/06/12 08:14:18;;;;;;;12.40;8.85;;;;;;;22.96;58.75;99988.88;5019249;28;20045;-84
2021/06/12 08:16:49;;;;;;;13.13;9.77;;;;;;;22.99;57.95;99987.72;5016152;28;20049;-84
2021/06/12 08:19:57;;;;;;;16.23;9.90;;;;;;;23.01;57.88;99993.75;5015929;28;20111;-84
2021/06/12 08:22:24;;;;;;;10.60;8.27;;;;;;;23.11;57.57;99997.16;5015694;28;20401;-84
2021/06/12 08:24:51;;;;;;;12.20;9.15;;;;;;;23.13;57.55;100008.56;5015527;28;20406;-84
2021/06/12 08:27:22;;;;;;;10.60;8.63;;;;;;;23.12;57.57;100006.88;5015997;28;20097;-84
2021/06/12 08:29:49;;;;;;;12.40;8.45;;;;;;;23.18;57.15;100005.38;5018281;28;20049;-84
2021/06/12 08:32:41;;;;;;;12.35;8.85;;;;;;;23.15;57.17;100017.31;5015846;28;20568;-84
2021/06/12 08:35:09;;;;;;;11.45;8.35;;;;;;;23.23;56.73;100015.63;5015178;28;20061;-84
2021/06/12 08:37:37;;;;;;;12.35;8.23;;;;;;;23.24;56.82;100017.28;5033087;28;20049;-84
2021/06/12 08:40:44;;;;;;;10.55;7.40;;;;;;;23.22;56.37;100022.00;5015579;28;20053;-85
2021/06/12 08:43:11;;;;;;;12.75;8.10;;;;;;;23.29;57.26;100018.47;5015759;28;20120;-84
2021/06/12 08:45:40;;;;;;;12.43;8.32;;;;;;;23.34;57.02;100034.16;5016248;28;20046;-84
2021/06/12 08:48:16;;;;;;;9.68;7.30;;;;;;;23.38;55.79;100027.44;5015767;28;20494;-84
2021/06/12 08:50:44;;;;;;;10.88;6.88;;;;;;;23.50;56.23;100038.72;5015873;28;20500;-84
2021/06/12 08:53:11;;;;;;;10.88;6.65;;;;;;;23.55;55.55;100036.34;5015486;28;20053;-84
2021/06/12 08:56:35;;;;;;;10.15;6.03;;;;;;;23.57;54.82;100030.81;5014926;28;20053;-84
2021/06/12 08:59:02;;;;;;;6.10;4.77;;;;;;;23.65;55.02;100024.59;5015419;28;20092;-84
2021/06/12 09:01:28;;;;;;;9.27;5.43;;;;;;;23.68;55.38;100022.44;5024967;28;20055;-84
2021/06/12 09:04:10;;;;;;;7.28;5.35;;;;;;;23.69;54.47;100020.56;5014930;28;20045;-84
2021/06/12 09:06:37;;;;;;;6.97;5.10;;;;;;;23.80;55.39;100017.56;5015512;28;20058;-84
2021/06/12 09:09:51;;;;;;;10.85;5.97;;;;;;;23.84;54.45;100023.44;5015347;28;20053;-85
2021/06/12 09:12:18;;;;;;;;;;;;;;;23.96;55.23;100032.03;5016114;28;20081;-85
2021/06/12 09:15:10;;;;;;;7.10;4.25;;;;;;;24.03;53.79;100032.19;5015044;28;20392;-85
2021/06/12 09:17:50;;;;;;;7.40;5.03;;;;;;;24.08;53.67;100032.50;5017080;28;20107;-84
2021/06/12 09:20:57;;;;;;;9.07;4.90;;;;;;;24.13;53.74;100026.63;5038214;28;20439;-84
2021/06/12 09:23:23;;;;;;;6.90;4.80;;;;;;;24.23;53.94;100021.94;5038733;28;20053;-86
2021/06/12 09:25:51;;;;;;;5.65;4.40;;;;;;;24.32;53.63;100028.97;5038406;28;20056;-89
2021/06/12 09:28:17;;;;;;;6.72;4.75;;;;;;;24.43;52.70;100043.06;5038614;28;20139;-88
2021/06/12 09:30:44;;;;;;;6.63;4.28;;;;;;;24.49;51.57;100047.78;5038856;28;20507;-89
2021/06/12 09:33:12;;;;;;;5.05;3.70;;;;;;;24.52;50.94;100050.09;5038820;28;20049;-88
2021/06/12 09:35:42;;;;;;;6.30;4.10;;;;;;;24.51;50.44;100044.91;5036182;28;20052;-88
2021/06/12 09:38:24;;;;;;;5.60;3.55;;;;;;;24.45;50.44;100049.13;5038422;28;20136;-88
2021/06/12 09:41:23;;;;;;;7.13;3.53;;;;;;;24.37;49.77;100052.66;5038692;28;20408;-88
2021/06/12 09:43:51;;;;;;;5.82;3.42;;;;;;;24.37;49.17;100054.53;5037854;28;20128;-89
2021/06/12 09:46:41;;;;;;;8.48;3.80;;;;;;;24.31;49.16;100056.91;5040350;28;20404;-89
2021/06/12 09:49:11;;;;;;;7.07;3.00;;;;;;;24.29;50.46;100050.00;5038484;28;20103;-88
2021/06/12 09:51:38;;;;;;;8.48;3.78;;;;;;;24.30;51.22;100049.81;5026184;28;20061;-88
2021/06/12 09:54:43;;;;;;;5.75;3.33;;;;;;;24.34;50.96;100058.41;5017806;28;20053;-89
2021/06/12 09:57:12;;;;;;;5.45;3.10;;;;;;;24.51;50.28;100053.00;5018266;28;20058;-89
2021/06/12 09:59:45;;;;;;;6.07;2.97;;;;;;;24.55;49.67;100062.38;5018135;28;20054;-89
2021/06/12 10:05:35;;;;;;;5.68;3.28;;;;;;;24.58;48.58;100084.41;5035307;28;20140;-89
2021/06/12 10:08:02;;;;;;;6.35;3.08;;;;;;;24.53;48.47;100078.72;5048813;28;20413;-89
2021/06/12 10:11:03;;;;;;;5.03;2.78;;;;;;;24.41;48.69;100075.53;5037614;28;20131;-89
2021/06/12 10:13:30;;;;;;;5.43;3.00;;;;;;;24.45;48.39;100090.31;5037738;28;20053;-88
2021/06/12 10:15:58;;;;;;;4.03;2.30;;;;;;;24.46;47.41;100077.72;5037293;28;20060;-89
2021/06/12 10:18:26;;;;;;;8.00;2.20;;;;;;;24.52;47.51;100089.66;5037562;28;20053;-88
2021/06/12 10:20:54;;;;;;;3.85;2.17;;;;;;;24.57;46.87;100085.44;5037963;28;20383;-88
2021/06/12 10:23:21;;;;;;;4.03;2.03;;;;;;;24.65;47.21;100089.09;5037479;28;20482;-88
2021/06/12 10:29:13;;;;;;;3.45;1.95;;;;;;;24.87;46.93;100092.94;5055406;28;20399;-88
2021/06/12 10:31:42;;;;;;;4.22;2.17;;;;;;;24.91;46.76;100106.88;5036656;28;20496;-89
2021/06/12 10:34:41;;;;;;;5.75;2.42;;;;;;;24.89;46.72;100108.94;5037254;28;20052;-88
2021/06/12 10:37:10;;;;;;;3.00;2.05;;;;;;;24.96;45.64;100080.28;5037647;28;20057;-89
2021/06/12 10:39:39;;;;;;;6.90;2.17;;;;;;;24.95;44.94;100094.75;5037228;28;20049;-89
2021/06/12 10:42:35;;;;;;;5.03;1.98;;;;;;;24.83;45.44;100100.50;5037519;28;20082;-88
2021/06/12 10:48:36;;;;;;;3.40;1.75;;;;;;;24.59;45.39;100104.94;5054932;28;20059;-88
2021/06/12 10:51:08;;;;;;;2.53;1.80;;;;;;;24.65;45.57;100105.25;5037326;28;20413;-84
2021/06/12 10:53:44;;;;;;;4.47;1.90;;;;;;;24.72;45.06;100090.94;5036651;28;20048;-84
2021/06/12 10:56:48;;;;;;;3.17;1.88;;;;;;;24.84;45.06;100096.81;5036837;28;20057;-85
2021/06/12 10:59:39;;;;;;;5.32;2.22;;;;;;;24.82;45.45;100096.13;5036781;28;20056;-84
2021/06/12 11:05:21;;;;;;;4.57;2.28;;;;;;;24.66;45.28;100102.38;5054181;28;20049;-85
2021/06/12 11:07:48;;;;;;;4.68;2.30;;;;;;;24.65;44.34;100091.78;5054453;28;20398;-84
2021/06/12 11:10:23;;;;;;;4.00;1.65;;;;;;;24.60;44.83;100092.31;5037420;28;20053;-85
2021/06/12 11:13:34;;;;;;;4.28;2.33;;;;;;;24.49;44.85;100101.59;5036513;28;20145;-85
2021/06/12 11:16:42;;;;;;;5.82;2.20;;;;;;;24.54;45.79;100103.75;5036379;28;20049;-85
2021/06/12 11:19:33;;;;;;;3.70;1.95;;;;;;;24.78;47.16;100100.16;5036560;28;20053;-85
2021/06/12 11:22:38;;;;;;;6.18;2.00;;;;;;;25.08;45.78;100096.91;5036474;28;20120;-85
2021/06/12 11:25:08;;;;;;;4.80;1.90;;;;;;;25.30;43.43;100095.28;5035779;28;20059;-84
2021/06/12 11:27:53;;;;;;;7.25;1.90;;;;;;;25.33;44.06;100086.84;5036334;28;20045;-85
2021/06/12 11:30:23;;;;;;;4.82;2.30;;;;;;;25.38;43.88;100089.03;5036427;28;20433;-85
2021/06/12 11:32:55;;;;;;;4.40;2.15;;;;;;;25.44;44.01;100099.09;4977279;28;20050;-85
2021/06/12 11:39:11;;;;;;;4.75;1.80;;;;;;;25.93;45.59;100097.09;4992612;28;20040;-85
2021/06/12 11:41:44;;;;;;;3.88;1.85;;;;;;;26.28;42.90;100104.78;4975714;28;20058;-85
2021/06/12 11:44:11;;;;;;;3.15;1.55;;;;;;;26.69;43.93;100098.13;4976094;28;20078;-85
2021/06/12 11:46:44;;;;;;;4.43;2.13;;;;;;;27.13;42.52;100107.25;4976310;28;20070;-85
2021/06/12 11:49:13;;;;;;;4.47;1.88;;;;;;;27.56;41.36;100092.16;4976713;28;20602;-85
2021/06/12 11:51:45;;;;;;;4.00;1.77;;;;;;;27.95;41.46;100103.59;5020407;28;20092;-85
2021/06/12 11:54:18;;;;;;;3.83;1.75;;;;;;;28.23;38.95;100098.22;5035563;28;20059;-85
2021/06/12 11:57:04;;;;;;;4.68;1.58;;;;;;;28.36;39.63;100102.09;5035643;28;20133;-85
2021/06/12 11:59:32;;;;;;;4.53;1.73;;;;;;;28.38;37.88;100110.88;5035862;28;20053;-85
2021/06/12 12:02:07;;;;;;;4.75;1.67;;;;;;;28.20;37.93;100117.56;5036197;28;20456;-84
2021/06/12 12:04:44;;;;;;;3.22;1.58;;;;;;;27.90;37.25;100117.72;5036485;28;20118;-83
2021/06/12 12:07:12;;;;;;;3.67;2.03;;;;;;;27.58;37.73;100117.97;5036141;28;20818;-83